Time;durP1;ratioP1;P1;durP2;ratioP2;P2;SDS_P1;SDS_P2;PMS_P1;PMS_P2;Temp;Humidity;BMP_temperature;BMP_pressure;BME280_temperature;BME280_humidity;BME280_pressure;Samples;Min_cycle;Max_cycle;Signal;HPM_P1;HPM_P2
2021/11/18 00:00:36;;;;;;;84.25;55.13;;;154.50;2252.80;;;;;;4958962;28;20086;-83
2021/11/18 00:03:03;;;;;;;103.55;67.15;;;154.50;2252.80;;;;;;4959150;28;20105;-82
2021/11/18 00:05:30;;;;;;;121.18;69.57;;;154.50;2252.80;;;;;;4959838;28;20031;-83
2021/11/18 00:07:56;;;;;;;146.15;84.38;;;154.50;2252.80;;;;;;4961372;28;20031;-83
2021/11/18 00:10:26;;;;;;;127.47;76.38;;;154.50;2252.80;;;;;;4959733;28;20023;-83
2021/11/18 00:12:53;;;;;;;117.25;73.25;;;154.40;2252.80;;;;;;4960108;28;20039;-87
2021/11/18 00:15:20;;;;;;;117.85;72.63;;;154.30;2252.80;;;;;;4960762;28;20058;-87
2021/11/18 00:17:46;;;;;;;120.65;79.97;;;154.40;2252.80;;;;;;4960037;28;20126;-87
2021/11/18 00:20:15;;;;;;;115.53;71.50;;;154.30;2252.80;;;;;;4960368;28;20038;-86
2021/11/18 00:22:42;;;;;;;101.78;63.58;;;154.30;2252.80;;;;;;4959804;28;20118;-87
2021/11/18 00:25:10;;;;;;;128.73;76.28;;;154.20;2252.80;;;;;;4960111;28;20469;-87
2021/11/18 00:27:36;;;;;;;111.90;71.90;;;154.20;2252.80;;;;;;4976548;28;20034;-85
2021/11/18 00:30:07;;;;;;;102.80;65.20;;;154.30;2252.80;;;;;;4978756;28;20030;-83
2021/11/18 00:32:35;;;;;;;98.88;61.35;;;154.20;2252.80;;;;;;4979334;28;20014;-85
2021/11/18 00:35:02;;;;;;;92.88;59.63;;;154.20;2252.80;;;;;;4978631;28;20011;-85
2021/11/18 00:37:28;;;;;;;101.60;64.28;;;154.20;2252.80;;;;;;4982760;28;20034;-85
2021/11/18 00:39:54;;;;;;;91.00;58.85;;;154.30;2252.80;;;;;;4982888;28;20019;-86
2021/11/18 00:42:20;;;;;;;93.22;57.67;;;154.20;2252.80;;;;;;4982405;28;20058;-84
2021/11/18 00:44:45;;;;;;;79.88;50.47;;;154.10;2252.80;;;;;;4976550;28;20027;-86
2021/11/18 00:47:11;;;;;;;81.65;49.38;;;154.00;2252.80;;;;;;4970596;28;20034;-87
2021/11/18 00:49:37;;;;;;;67.20;45.33;;;153.90;2252.80;;;;;;4959813;28;20038;-87
2021/11/18 00:52:03;;;;;;;82.80;51.67;;;153.90;2252.80;;;;;;4959198;28;20113;-86
2021/11/18 00:54:29;;;;;;;78.07;51.17;;;153.90;2252.80;;;;;;4958781;28;20034;-88
2021/11/18 00:56:58;;;;;;;85.20;52.45;;;153.80;2252.80;;;;;;4959022;28;20054;-87
2021/11/18 00:59:24;;;;;;;90.88;58.63;;;153.70;2252.80;;;;;;4958761;28;20037;-86
2021/11/18 01:01:51;;;;;;;71.63;44.72;;;153.70;2252.80;;;;;;4958731;28;20030;-87
2021/11/18 01:04:19;;;;;;;70.53;42.38;;;153.70;2252.80;;;;;;4958760;28;20033;-87
2021/11/18 01:06:46;;;;;;;64.45;42.15;;;153.80;2252.80;;;;;;4958942;28;20030;-86
2021/11/18 01:09:12;;;;;;;59.28;39.67;;;153.80;2252.80;;;;;;4959176;28;20468;-87
2021/11/18 01:11:38;;;;;;;63.90;37.92;;;153.70;2252.80;;;;;;4959422;28;20030;-87
2021/11/18 01:14:07;;;;;;;59.42;37.80;;;154.00;2252.80;;;;;;4959393;28;20046;-87
2021/11/18 01:16:37;;;;;;;59.92;38.63;;;153.60;2252.80;;;;;;4975846;28;20037;-87
2021/11/18 01:19:06;;;;;;;58.05;37.50;;;153.60;2252.80;;;;;;4959293;28;20121;-86
2021/11/18 01:21:33;;;;;;;56.53;36.80;;;153.60;2252.80;;;;;;4959579;28;20030;-86
2021/11/18 01:23:59;;;;;;;64.63;41.03;;;153.80;2252.80;;;;;;4959314;28;20105;-86
2021/11/18 01:26:25;;;;;;;65.45;39.40;;;153.90;2252.80;;;;;;4959313;28;20026;-86
2021/11/18 01:28:52;;;;;;;57.45;35.22;;;153.80;2252.80;;;;;;4959319;28;20031;-86
2021/11/18 01:31:19;;;;;;;49.97;32.83;;;153.90;2252.80;;;;;;4959838;28;20034;-86
2021/11/18 01:33:46;;;;;;;52.88;35.58;;;153.90;2252.80;;;;;;4959988;28;20114;-86
2021/11/18 01:36:12;;;;;;;67.07;42.53;;;153.90;2252.80;;;;;;4960616;28;20030;-86
2021/11/18 01:38:38;;;;;;;58.05;39.25;;;153.90;2252.80;;;;;;4977427;28;20030;-86
2021/11/18 01:41:08;;;;;;;66.30;42.08;;;153.70;2252.80;;;;;;4980479;28;20026;-86
2021/11/18 01:43:38;;;;;;;65.93;43.20;;;153.80;2252.80;;;;;;4964525;28;20034;-86
2021/11/18 01:46:07;;;;;;;72.00;46.47;;;153.90;2252.80;;;;;;4964870;28;20023;-86
2021/11/18 01:48:33;;;;;;;73.80;49.42;;;153.90;2252.80;;;;;;4963777;28;20031;-86
2021/11/18 01:50:59;;;;;;;78.43;49.80;;;153.90;2252.80;;;;;;4963315;28;20027;-86
2021/11/18 01:53:38;;;;;;;71.25;47.75;;;154.00;2252.80;;;;;;4962041;28;20049;-86
2021/11/18 01:56:09;;;;;;;71.38;47.97;;;154.00;2252.80;;;;;;4961969;28;20033;-86
2021/11/18 01:58:37;;;;;;;69.25;43.97;;;154.10;2252.80;;;;;;4958223;29;20051;-86
2021/11/18 02:01:06;;;;;;;63.67;41.47;;;154.10;2252.80;;;;;;4958450;29;20033;-86
2021/11/18 02:03:32;;;;;;;61.13;38.67;;;154.20;2252.80;;;;;;4959604;28;20023;-84
2021/11/18 02:06:03;;;;;;;53.97;34.63;;;153.90;2252.80;;;;;;4958529;29;20066;-86
2021/11/18 02:08:29;;;;;;;58.50;35.42;;;154.10;2252.80;;;;;;4958588;29;20035;-87
2021/11/18 02:11:00;;;;;;;55.55;37.17;;;154.20;2252.80;;;;;;4958250;29;20082;-85
2021/11/18 02:13:26;;;;;;;54.83;36.13;;;154.10;2252.80;;;;;;4958639;29;20464;-86
2021/11/18 02:15:55;;;;;;;54.28;36.05;;;154.10;2252.80;;;;;;4958285;29;20078;-85
2021/11/18 02:18:26;;;;;;;52.55;36.33;;;154.00;2252.80;;;;;;4958149;29;20043;-87
2021/11/18 02:20:56;;;;;;;48.20;34.85;;;154.10;2252.80;;;;;;4958243;29;20114;-86
2021/11/18 02:23:27;;;;;;;52.92;36.88;;;154.20;2252.80;;;;;;4959099;29;20138;-86
2021/11/18 02:25:54;;;;;;;55.63;35.75;;;154.00;2252.80;;;;;;4960103;29;20031;-85
2021/11/18 02:28:22;;;;;;;55.63;37.13;;;153.80;2252.80;;;;;;4958873;29;20042;-85
2021/11/18 02:30:50;;;;;;;51.05;36.17;;;153.90;2252.80;;;;;;4958111;29;20023;-88
2021/11/18 02:33:17;;;;;;;55.05;35.85;;;153.90;2252.80;;;;;;4957970;29;20024;-86
2021/11/18 02:35:45;;;;;;;51.72;35.15;;;153.90;2252.80;;;;;;4958104;29;20082;-86
2021/11/18 02:38:12;;;;;;;57.10;36.38;;;153.90;2252.80;;;;;;4957716;29;20046;-86
2021/11/18 02:40:41;;;;;;;57.78;37.70;;;154.00;2252.80;;;;;;4957651;29;20073;-86
2021/11/18 02:43:07;;;;;;;56.17;35.85;;;154.00;2252.80;;;;;;4957936;29;20454;-85
2021/11/18 02:45:35;;;;;;;53.45;35.50;;;154.00;2252.80;;;;;;4957523;29;20058;-86
2021/11/18 02:48:01;;;;;;;57.95;38.95;;;153.90;2252.80;;;;;;4957652;29;20436;-87
2021/11/18 02:50:32;;;;;;;51.70;35.67;;;153.90;2252.80;;;;;;4957563;28;20028;-86
2021/11/18 02:52:58;;;;;;;49.00;33.17;;;153.80;2252.80;;;;;;4957753;29;20027;-86
2021/11/18 02:55:28;;;;;;;49.33;33.65;;;154.00;2252.80;;;;;;4957509;29;20023;-88
2021/11/18 02:57:55;;;;;;;85.93;50.13;;;153.90;2252.80;;;;;;4957386;29;20059;-87
2021/11/18 03:00:25;;;;;;;102.07;58.35;;;153.90;2252.80;;;;;;4957503;29;20038;-87
2021/11/18 03:02:51;;;;;;;94.05;53.97;;;153.90;2252.80;;;;;;4958216;28;20531;-87
2021/11/18 03:05:18;;;;;;;77.00;47.40;;;153.90;2252.80;;;;;;4957362;29;20028;-86
2021/11/18 03:07:48;;;;;;;64.30;39.78;;;154.10;2252.80;;;;;;4957322;29;20050;-88
2021/11/18 03:10:16;;;;;;;64.55;39.80;;;154.10;2252.80;;;;;;4957554;29;20046;-86
2021/11/18 03:12:42;;;;;;;61.72;37.17;;;154.00;2252.80;;;;;;4957174;29;20130;-86
2021/11/18 03:15:11;;;;;;;64.10;38.83;;;154.10;2252.80;;;;;;4957062;29;20027;-86
2021/11/18 03:17:38;;;;;;;56.97;35.08;;;154.00;2252.80;;;;;;4957086;29;20039;-88
2021/11/18 03:20:10;;;;;;;52.00;34.72;;;154.00;2252.80;;;;;;4956924;29;20464;-87
2021/11/18 03:22:37;;;;;;;55.22;33.90;;;154.00;2252.80;;;;;;4957497;29;20054;-86
2021/11/18 03:25:04;;;;;;;52.08;34.30;;;154.00;2252.80;;;;;;4957067;29;20038;-87
2021/11/18 03:27:30;;;;;;;50.75;34.08;;;154.10;2252.80;;;;;;4956850;29;20035;-87
2021/11/18 03:29:55;;;;;;;50.60;32.75;;;154.10;2252.80;;;;;;4957074;29;20446;-87
2021/11/18 03:32:21;;;;;;;51.58;33.78;;;154.00;2252.80;;;;;;4956696;29;20408;-86
2021/11/18 03:34:47;;;;;;;50.72;31.63;;;154.00;2252.80;;;;;;4956803;29;20038;-87
2021/11/18 03:37:13;;;;;;;52.08;34.38;;;154.10;2252.80;;;;;;4956858;29;20066;-87
2021/11/18 03:39:39;;;;;;;54.08;34.67;;;154.10;2252.80;;;;;;4957826;28;20031;-87
2021/11/18 03:42:08;;;;;;;54.10;35.35;;;154.10;2252.80;;;;;;4956430;29;20460;-86
2021/11/18 03:44:35;;;;;;;63.22;36.95;;;154.10;2252.80;;;;;;4956842;29;20061;-86
2021/11/18 03:47:05;;;;;;;60.88;37.33;;;154.20;2252.80;;;;;;4956797;29;20059;-85
2021/11/18 03:49:31;;;;;;;62.05;37.22;;;154.30;2252.80;;;;;;4956605;29;20424;-86
2021/11/18 03:52:00;;;;;;;60.45;36.72;;;154.30;2252.80;;;;;;4956423;29;20032;-87
2021/11/18 03:54:29;;;;;;;62.67;38.22;;;154.30;2252.80;;;;;;4957628;28;20134;-87
2021/11/18 03:56:55;;;;;;;57.90;36.08;;;154.40;2252.80;;;;;;4956288;29;20066;-86
2021/11/18 03:59:28;;;;;;;51.78;35.10;;;154.40;2252.80;;;;;;4956556;29;20031;-86
2021/11/18 04:01:56;;;;;;;48.85;31.48;;;154.40;2252.80;;;;;;4956292;28;20090;-86
2021/11/18 04:04:25;;;;;;;48.78;32.67;;;154.50;2252.80;;;;;;4957208;29;20063;-86
2021/11/18 04:06:51;;;;;;;52.70;33.47;;;154.40;2252.80;;;;;;4956055;29;20063;-86
2021/11/18 04:09:18;;;;;;;47.63;31.77;;;154.50;2252.80;;;;;;4956385;29;20066;-86
2021/11/18 04:11:46;;;;;;;52.45;34.35;;;154.30;2252.80;;;;;;4956321;29;20028;-86
2021/11/18 04:14:13;;;;;;;54.95;33.45;;;179.20;2252.80;;;;;;4956248;29;20046;-86
2021/11/18 04:16:39;;;;;;;52.45;33.33;;;179.60;2252.80;;;;;;4955882;29;20034;-87
2021/11/18 04:19:05;;;;;;;51.25;33.22;;;179.20;2252.80;;;;;;4955995;29;20086;-86
2021/11/18 04:21:33;;;;;;;53.05;33.15;;;179.20;2252.80;;;;;;4955887;29;20030;-87
2021/11/18 04:24:06;;;;;;;59.30;36.42;;;179.20;2252.80;;;;;;4956049;29;20027;-86
2021/11/18 04:26:32;;;;;;;58.33;34.40;;;179.20;2252.80;;;;;;4955934;29;20079;-86
2021/11/18 04:28:58;;;;;;;53.03;34.25;;;179.30;2252.80;;;;;;4955890;29;20031;-86
2021/11/18 04:31:25;;;;;;;50.60;33.63;;;179.20;2252.80;;;;;;4955781;29;20034;-85
2021/11/18 04:33:52;;;;;;;56.28;32.60;;;154.50;2252.80;;;;;;4955857;29;20031;-87
2021/11/18 04:36:21;;;;;;;54.20;34.40;;;154.50;2252.80;;;;;;4955764;29;20065;-86
2021/11/18 04:38:47;;;;;;;51.92;34.97;;;154.50;2252.80;;;;;;4956821;28;20540;-85
2021/11/18 04:41:14;;;;;;;50.78;33.53;;;154.50;2252.80;;;;;;4955708;29;20067;-87
2021/11/18 04:43:42;;;;;;;58.25;37.17;;;154.50;2252.80;;;;;;4955399;29;20042;-87
2021/11/18 04:46:09;;;;;;;58.88;36.72;;;154.40;2252.80;;;;;;4955626;29;20078;-86
2021/11/18 04:48:37;;;;;;;59.97;35.20;;;154.40;2252.80;;;;;;4955439;29;20353;-87
2021/11/18 04:51:06;;;;;;;56.58;33.45;;;154.50;2252.80;;;;;;4955363;29;20037;-87
2021/11/18 04:53:32;;;;;;;54.10;34.65;;;154.40;2252.80;;;;;;4956722;28;20019;-87
2021/11/18 04:55:59;;;;;;;49.75;34.55;;;154.40;2252.80;;;;;;4956448;29;20465;-86
2021/11/18 04:58:25;;;;;;;51.97;34.92;;;154.40;2252.80;;;;;;4972488;28;20079;-87
2021/11/18 05:00:54;;;;;;;51.53;34.10;;;154.50;2252.80;;;;;;4958888;28;20038;-87
2021/11/18 05:03:22;;;;;;;52.13;35.00;;;154.50;2252.80;;;;;;4975813;28;20037;-86
2021/11/18 05:05:49;;;;;;;49.70;33.80;;;154.50;2252.80;;;;;;4958808;28;20113;-86
2021/11/18 05:08:16;;;;;;;54.83;36.58;;;154.50;2252.80;;;;;;4958620;28;20066;-86
2021/11/18 05:10:45;;;;;;;55.33;37.47;;;154.30;2252.80;;;;;;4958689;28;20464;-87
2021/11/18 05:13:11;;;;;;;55.72;37.05;;;154.50;2252.80;;;;;;4958639;28;20050;-86
2021/11/18 05:15:39;;;;;;;58.47;37.83;;;154.50;2252.80;;;;;;4957409;28;20031;-87
2021/11/18 05:18:07;;;;;;;56.13;37.15;;;154.30;2252.80;;;;;;4958315;28;20035;-87
2021/11/18 05:20:33;;;;;;;55.78;38.15;;;154.50;2252.80;;;;;;4958346;28;20476;-86
2021/11/18 05:22:59;;;;;;;57.65;39.08;;;154.50;2252.80;;;;;;4958380;28;20117;-86
2021/11/18 05:25:28;;;;;;;63.33;40.30;;;154.50;2252.80;;;;;;4958381;28;20031;-87
2021/11/18 05:27:55;;;;;;;66.40;42.08;;;154.40;2252.80;;;;;;4958492;28;20035;-85
2021/11/18 05:30:23;;;;;;;74.25;48.22;;;154.50;2252.80;;;;;;4958570;28;20472;-85
2021/11/18 05:32:50;;;;;;;87.40;55.67;;;154.50;2252.80;;;;;;4958419;28;20027;-87
2021/11/18 05:35:16;;;;;;;94.80;60.50;;;154.50;2252.80;;;;;;4958383;28;20034;-87
2021/11/18 05:37:42;;;;;;;96.60;62.53;;;179.20;2252.80;;;;;;4975575;28;20035;-86
2021/11/18 05:40:10;;;;;;;92.68;59.22;;;179.30;2252.80;;;;;;4957953;28;20023;-86
2021/11/18 05:42:37;;;;;;;88.15;59.53;;;179.30;2252.80;;;;;;4958096;28;20027;-86
2021/11/18 05:45:06;;;;;;;102.15;60.90;;;179.30;2252.80;;;;;;4958268;28;20400;-87
2021/11/18 05:47:31;;;;;;;97.78;62.83;;;179.40;2252.80;;;;;;4957703;28;20499;-86
2021/11/18 05:49:59;;;;;;;96.43;60.25;;;179.40;2252.80;;;;;;4975420;28;20027;-86
2021/11/18 05:52:26;;;;;;;146.13;85.70;;;179.50;2252.80;;;;;;4958298;28;20023;-86
2021/11/18 05:54:53;;;;;;;135.38;76.93;;;179.40;2252.80;;;;;;4957925;28;20023;-85
2021/11/18 05:57:19;;;;;;;142.30;84.88;;;179.40;2252.80;;;;;;4957829;28;20055;-86
2021/11/18 05:59:45;;;;;;;79.88;51.42;;;179.40;2252.80;;;;;;4958447;28;20027;-86
2021/11/18 06:02:11;;;;;;;87.72;51.45;;;179.30;2252.80;;;;;;4977138;28;20046;-85
2021/11/18 06:04:37;;;;;;;85.75;55.40;;;179.20;2252.80;;;;;;4965997;28;20023;-87
2021/11/18 06:07:03;;;;;;;87.05;57.22;;;154.50;2252.80;;;;;;4958100;28;20042;-87
2021/11/18 06:09:29;;;;;;;86.25;56.40;;;179.20;2252.80;;;;;;4958176;28;20090;-87
2021/11/18 06:11:55;;;;;;;91.45;61.08;;;179.40;2252.80;;;;;;4958157;28;20030;-86
2021/11/18 06:14:22;;;;;;;98.38;67.72;;;179.50;2252.80;;;;;;4975119;28;20031;-86
2021/11/18 06:16:48;;;;;;;255.95;171.07;;;179.40;2252.80;;;;;;4958484;28;20030;-87
2021/11/18 06:19:14;;;;;;;187.48;142.88;;;179.30;2252.80;;;;;;4958079;28;20086;-87
2021/11/18 06:21:44;;;;;;;167.50;120.93;;;179.20;2252.80;;;;;;4957845;28;20068;-87
2021/11/18 06:24:12;;;;;;;93.22;65.10;;;179.30;2252.80;;;;;;4958012;28;20038;-87
2021/11/18 06:26:38;;;;;;;92.80;60.08;;;179.40;2252.80;;;;;;4977104;28;20027;-87
2021/11/18 06:29:05;;;;;;;88.82;55.42;;;179.60;2252.80;;;;;;4962007;28;20034;-87
2021/11/18 06:31:31;;;;;;;85.53;55.03;;;179.70;2252.80;;;;;;4978728;28;20031;-87
2021/11/18 06:33:57;;;;;;;95.03;56.85;;;179.60;2252.80;;;;;;4961517;28;20027;-87
2021/11/18 06:36:24;;;;;;;112.50;64.18;;;179.60;2252.80;;;;;;4961391;28;20031;-87
2021/11/18 06:38:51;;;;;;;107.53;67.50;;;179.60;2252.80;;;;;;4961325;28;20035;-88
2021/11/18 06:41:20;;;;;;;114.85;75.72;;;179.70;2252.80;;;;;;4961619;28;20109;-86
2021/11/18 06:43:47;;;;;;;117.07;72.40;;;179.70;2252.80;;;;;;4978328;28;20026;-87
2021/11/18 06:46:14;;;;;;;117.00;70.70;;;179.70;2252.80;;;;;;4961075;28;20114;-87
2021/11/18 06:48:40;;;;;;;120.07;77.82;;;179.50;2252.80;;;;;;4961185;28;20043;-86
2021/11/18 06:51:12;;;;;;;117.25;71.20;;;179.90;2252.80;;;;;;4960837;28;20061;-85
2021/11/18 06:53:40;;;;;;;118.00;70.32;;;179.90;2252.80;;;;;;4961066;28;20030;-87
2021/11/18 06:56:07;;;;;;;111.20;71.97;;;179.90;2252.80;;;;;;4960705;28;20031;-86
2021/11/18 06:58:33;;;;;;;112.43;75.65;;;179.80;2252.80;;;;;;4960244;28;20567;-83
2021/11/18 07:00:58;;;;;;;111.72;72.88;;;204.90;2252.80;;;;;;4959981;28;20392;-83
2021/11/18 07:03:24;;;;;;;104.72;71.38;;;179.90;2252.80;;;;;;4960500;28;20031;-82
2021/11/18 07:05:50;;;;;;;131.60;84.55;;;180.00;2252.80;;;;;;4959669;28;20122;-81
2021/11/18 07:08:17;;;;;;;149.95;98.72;;;180.00;2252.80;;;;;;4959798;28;20027;-79
2021/11/18 07:10:44;;;;;;;125.03;85.38;;;180.10;2252.80;;;;;;4959406;28;20372;-79
2021/11/18 07:13:17;;;;;;;139.65;88.43;;;180.00;2252.80;;;;;;4959601;28;20421;-80
2021/11/18 07:15:43;;;;;;;136.48;90.60;;;180.10;2252.80;;;;;;4959856;28;20031;-82
2021/11/18 07:18:09;;;;;;;129.70;86.60;;;204.80;2252.80;;;;;;4959271;28;20039;-80
2021/11/18 07:20:35;;;;;;;119.35;82.47;;;204.80;2252.80;;;;;;4959468;28;20109;-78
2021/11/18 07:23:01;;;;;;;171.52;102.20;;;204.90;2252.80;;;;;;4959589;28;20031;-79
2021/11/18 07:25:28;;;;;;;145.25;94.00;;;204.90;2252.80;;;;;;4959150;28;20027;-78
2021/11/18 07:27:55;;;;;;;142.77;93.10;;;204.90;2252.80;;;;;;4959478;28;20057;-80
2021/11/18 07:30:22;;;;;;;122.00;82.13;;;204.90;2252.80;;;;;;4959601;28;20034;-81
2021/11/18 07:32:48;;;;;;;125.22;81.93;;;204.90;2252.80;;;;;;4960306;28;20023;-81
2021/11/18 07:35:14;;;;;;;102.07;66.72;;;204.90;2252.80;;;;;;4959760;28;20113;-79
2021/11/18 07:37:40;;;;;;;90.65;61.42;;;205.00;2252.80;;;;;;4958346;28;20065;-81
2021/11/18 07:40:10;;;;;;;86.47;58.85;;;205.00;2252.80;;;;;;4975987;28;20460;-81
2021/11/18 07:42:36;;;;;;;91.20;58.97;;;205.00;2252.80;;;;;;4959083;28;20023;-83
2021/11/18 07:45:04;;;;;;;82.45;56.90;;;205.10;2252.80;;;;;;4959016;28;20034;-83
2021/11/18 07:47:30;;;;;;;94.40;63.95;;;205.00;2252.80;;;;;;4959184;28;20468;-84
2021/11/18 07:49:56;;;;;;;94.63;65.20;;;205.00;2252.80;;;;;;4976536;28;20101;-82
2021/11/18 07:52:21;;;;;;;93.38;58.92;;;205.00;2252.80;;;;;;4958760;28;20074;-83
2021/11/18 07:54:47;;;;;;;83.35;57.15;;;205.00;2252.80;;;;;;4959357;28;20027;-82
2021/11/18 07:57:13;;;;;;;86.97;59.03;;;205.00;2252.80;;;;;;4955516;29;20175;-82
2021/11/18 07:59:39;;;;;;;103.28;65.50;;;205.10;2252.80;;;;;;4956844;28;20023;-81
2021/11/18 08:02:05;;;;;;;107.40;70.38;;;205.20;2252.80;;;;;;4955624;29;20079;-81
2021/11/18 08:04:32;;;;;;;115.85;79.05;;;205.20;2252.80;;;;;;4957118;28;20034;-82
2021/11/18 08:07:03;;;;;;;134.23;90.78;;;205.10;2252.80;;;;;;4955455;29;20031;-83
2021/11/18 08:09:29;;;;;;;115.45;78.15;;;205.20;2252.80;;;;;;4955603;29;20432;-81
2021/11/18 08:11:57;;;;;;;103.53;69.93;;;205.20;2252.80;;;;;;4955631;29;20024;-83
2021/11/18 08:14:24;;;;;;;107.57;76.38;;;205.30;2252.80;;;;;;4956739;28;20031;-83
2021/11/18 08:16:51;;;;;;;109.50;80.22;;;205.40;2252.80;;;;;;4955464;29;20053;-82
2021/11/18 08:19:17;;;;;;;108.15;77.43;;;205.50;2252.80;;;;;;4956314;29;20028;-82
2021/11/18 08:21:46;;;;;;;109.95;78.05;;;205.50;2252.80;;;;;;4956129;28;20362;-82
2021/11/18 08:24:14;;;;;;;105.00;72.05;;;205.50;2252.80;;;;;;4955854;29;20122;-82
2021/11/18 08:26:41;;;;;;;87.90;60.63;;;205.60;2252.80;;;;;;4955929;29;20465;-84
2021/11/18 08:29:08;;;;;;;76.95;54.10;;;205.60;2252.80;;;;;;4956134;29;20508;-85
2021/11/18 08:31:35;;;;;;;76.50;53.45;;;205.70;2252.80;;;;;;4956931;29;20038;-86
2021/11/18 08:34:02;;;;;;;64.43;45.50;;;205.50;2252.80;;;;;;4955485;29;20402;-84
2021/11/18 08:36:28;;;;;;;60.13;41.13;;;205.70;2252.80;;;;;;4955099;29;20050;-81
2021/11/18 08:38:55;;;;;;;65.13;46.42;;;205.40;2252.80;;;;;;4956085;29;20098;-81
2021/11/18 08:41:21;;;;;;;64.25;41.35;;;205.60;2252.80;;;;;;4954463;29;20031;-80
2021/11/18 08:43:51;;;;;;;61.47;44.75;;;205.60;2252.80;;;;;;4956136;29;20038;-82
2021/11/18 08:46:18;;;;;;;51.85;35.35;;;205.60;2252.80;;;;;;4965072;29;20031;-79
2021/11/18 08:48:45;;;;;;;57.85;37.60;;;205.70;2252.80;;;;;;4968108;28;20038;-82
2021/11/18 08:51:12;;;;;;;49.72;32.70;;;230.40;2252.80;;;;;;4971149;29;20054;-82
2021/11/18 08:53:41;;;;;;;46.22;35.13;;;205.70;2252.80;;;;;;4972327;29;20031;-84
2021/11/18 08:56:08;;;;;;;49.63;33.00;;;205.70;2252.80;;;;;;4970782;29;20100;-81
2021/11/18 08:58:37;;;;;;;48.22;33.05;;;205.70;2252.80;;;;;;4973418;29;20055;-81
2021/11/18 09:01:13;;;;;;;51.58;35.63;;;230.40;2252.80;;;;;;4973379;29;20099;-82
2021/11/18 09:03:40;;;;;;;46.92;32.47;;;230.40;2252.80;;;;;;4969762;28;20027;-81
2021/11/18 09:06:10;;;;;;;54.28;37.22;;;230.50;2252.80;;;;;;4975449;29;20027;-81
2021/11/18 09:08:36;;;;;;;46.90;34.58;;;230.50;2252.80;;;;;;4975555;28;20022;-81
2021/11/18 09:11:05;;;;;;;53.95;36.78;;;230.60;2252.80;;;;;;4973624;29;20370;-81
2021/11/18 09:13:30;;;;;;;53.88;35.10;;;230.60;2252.80;;;;;;4974827;29;20050;-83
2021/11/18 09:15:56;;;;;;;59.67;41.88;;;230.60;2252.80;;;;;;4968994;29;20027;-85
2021/11/18 09:18:22;;;;;;;59.92;39.72;;;230.60;2252.80;;;;;;4955790;29;20090;-82
2021/11/18 09:20:52;;;;;;;57.72;40.38;;;230.60;2252.80;;;;;;4955816;29;20027;-85
2021/11/18 09:23:36;;;;;;;56.88;38.88;;;230.60;2252.80;;;;;;4954352;29;20027;-77
2021/11/18 09:26:04;;;;;;;54.28;35.67;;;230.60;2252.80;;;;;;4954394;29;20027;-76
2021/11/18 09:28:30;;;;;;;59.17;40.67;;;230.70;2252.80;;;;;;4954242;29;20074;-76
2021/11/18 09:30:59;;;;;;;63.72;39.97;;;230.70;2252.80;;;;;;4955375;29;20059;-76
2021/11/18 09:33:26;;;;;;;57.28;37.80;;;230.80;2252.80;;;;;;4955777;28;20035;-76
2021/11/18 09:35:57;;;;;;;62.08;40.05;;;230.90;2252.80;;;;;;4954295;29;20120;-77
2021/11/18 09:38:25;;;;;;;54.65;38.20;;;231.30;2252.80;;;;;;4953812;29;20035;-77
2021/11/18 09:41:26;;;;;;;54.55;36.85;;;231.00;2252.80;;;;;;4954300;29;20023;-77
2021/11/18 09:44:25;;;;;;;48.95;34.28;;;231.10;2252.80;;;;;;4953990;29;20058;-76
2021/11/18 09:47:06;;;;;;;52.53;35.55;;;231.10;2252.80;;;;;;4954169;29;20143;-76
2021/11/18 09:49:53;;;;;;;83.63;57.78;;;231.20;2252.80;;;;;;4954513;29;20473;-77
2021/11/18 09:52:53;;;;;;;53.17;34.67;;;231.10;2252.80;;;;;;4955476;29;20074;-78
2021/11/18 09:55:27;;;;;;;53.80;35.80;;;231.10;2252.80;;;;;;4954710;29;20027;-75
2021/11/18 09:58:06;;;;;;;49.45;35.05;;;231.10;2252.80;;;;;;4972925;29;20112;-74
2021/11/18 10:00:35;;;;;;;51.00;35.65;;;231.10;2252.80;;;;;;4959333;28;20032;-78
2021/11/18 10:03:09;;;;;;;58.03;37.45;;;231.20;2252.80;;;;;;4958783;29;20496;-78
2021/11/18 10:05:58;;;;;;;66.38;43.15;;;231.20;2252.80;;;;;;4957154;29;20031;-78
2021/11/18 10:08:31;;;;;;;60.78;40.55;;;231.20;2252.80;;;;;;4957561;29;20043;-78
2021/11/18 10:11:11;;;;;;;56.97;39.28;;;231.20;2252.80;;;;;;4957411;29;20031;-77
2021/11/18 10:14:02;;;;;;;46.58;33.45;;;231.30;2252.80;;;;;;4957168;29;20063;-78
2021/11/18 10:16:34;;;;;;;47.05;33.65;;;231.20;2252.80;;;;;;4957373;29;20377;-77
2021/11/18 10:19:06;;;;;;;49.13;33.97;;;231.20;2252.80;;;;;;4957147;29;20670;-77
2021/11/18 10:21:45;;;;;;;50.47;36.03;;;231.20;2252.80;;;;;;4957413;29;20027;-77
2021/11/18 10:24:15;;;;;;;53.53;35.80;;;231.30;2252.80;;;;;;4957219;29;20042;-78
2021/11/18 10:26:45;;;;;;;53.97;35.67;;;231.20;2252.80;;;;;;4956732;29;20038;-76
2021/11/18 10:29:24;;;;;;;50.75;34.65;;;231.10;2252.80;;;;;;4957363;29;20035;-78
2021/11/18 10:31:58;;;;;;;48.83;32.95;;;231.10;2252.80;;;;;;4958339;29;20031;-86
2021/11/18 10:34:45;;;;;;;51.20;33.00;;;231.10;2252.80;;;;;;4957842;29;20038;-85
2021/11/18 10:37:24;;;;;;;47.90;33.25;;;231.10;2252.80;;;;;;4957795;29;20042;-85
2021/11/18 10:40:05;;;;;;;52.35;36.65;;;231.00;2252.80;;;;;;4957291;29;20039;-85
2021/11/18 10:42:37;;;;;;;53.38;34.78;;;231.00;2252.80;;;;;;4956316;29;20031;-84
2021/11/18 10:45:37;;;;;;;48.05;34.05;;;231.10;2252.80;;;;;;4956394;29;20050;-85
2021/11/18 10:48:14;;;;;;;52.17;34.17;;;231.10;2252.80;;;;;;4957335;29;20404;-84
2021/11/18 10:50:51;;;;;;;54.58;36.15;;;231.10;2252.80;;;;;;4957742;29;20039;-86
2021/11/18 10:53:47;;;;;;;52.95;36.72;;;231.10;2252.80;;;;;;4956911;29;20027;-84
2021/11/18 10:56:16;;;;;;;57.95;37.78;;;231.20;2252.80;;;;;;4957158;29;20446;-84
2021/11/18 10:58:45;;;;;;;57.72;36.35;;;231.20;2252.80;;;;;;4976360;28;20054;-85
2021/11/18 11:01:14;;;;;;;53.90;39.22;;;231.20;2252.80;;;;;;4960201;28;20042;-84
2021/11/18 11:03:43;;;;;;;56.33;39.00;;;231.30;2252.80;;;;;;4977726;28;20023;-84
2021/11/18 11:06:15;;;;;;;57.65;39.30;;;231.30;2252.80;;;;;;4959950;28;20130;-85
2021/11/18 11:08:51;;;;;;;61.00;39.92;;;231.30;2252.80;;;;;;4960358;28;20080;-84
2021/11/18 11:11:40;;;;;;;63.40;40.78;;;231.30;2252.80;;;;;;4960398;28;20058;-83
2021/11/18 11:14:41;;;;;;;57.97;39.08;;;231.30;2252.80;;;;;;4960110;28;20019;-84
2021/11/18 11:17:26;;;;;;;69.95;42.80;;;231.20;2252.80;;;;;;4960131;28;20035;-85
2021/11/18 11:20:09;;;;;;;60.97;40.63;;;231.20;2252.80;;;;;;4960525;28;20468;-85
2021/11/18 11:22:49;;;;;;;61.13;42.90;;;231.20;2252.80;;;;;;4959996;28;20033;-85
2021/11/18 11:25:32;;;;;;;64.05;41.42;;;231.10;2252.80;;;;;;4960215;28;20034;-86
2021/11/18 11:28:36;;;;;;;66.85;46.17;;;231.10;2252.80;;;;;;4960352;28;20480;-85
2021/11/18 11:31:29;;;;;;;71.97;47.08;;;231.10;2252.80;;;;;;4959564;28;20034;-85
2021/11/18 11:34:20;;;;;;;64.43;43.63;;;231.10;2252.80;;;;;;4977421;28;20027;-85
2021/11/18 11:37:04;;;;;;;66.97;43.97;;;231.00;2252.80;;;;;;4959592;28;20030;-85
2021/11/18 11:39:54;;;;;;;66.68;44.17;;;231.00;2252.80;;;;;;4959790;28;20070;-84
2021/11/18 11:42:38;;;;;;;69.28;50.83;;;231.00;2252.80;;;;;;4959839;28;20037;-85
2021/11/18 11:45:14;;;;;;;81.38;51.90;;;231.00;2252.80;;;;;;4976890;28;20032;-84
2021/11/18 11:47:49;;;;;;;77.95;50.58;;;230.90;2252.80;;;;;;4959821;28;20317;-78
2021/11/18 11:50:48;;;;;;;72.82;48.95;;;230.90;2252.80;;;;;;4958403;28;20031;-79
2021/11/18 11:53:38;;;;;;;71.70;50.80;;;230.90;2252.80;;;;;;4958847;28;20027;-76
2021/11/18 11:56:04;;;;;;;65.82;46.65;;;231.00;2252.80;;;;;;4958590;28;20396;-82
2021/11/18 11:58:49;;;;;;;76.28;51.83;;;231.10;2252.80;;;;;;4975192;28;20511;-76
2021/11/18 12:01:21;;;;;;;78.70;54.20;;;231.10;2252.80;;;;;;4976265;28;20042;-78
2021/11/18 12:03:56;;;;;;;79.53;52.72;;;231.10;2252.80;;;;;;4958544;28;20023;-77
2021/11/18 12:06:46;;;;;;;79.63;52.33;;;231.10;2252.80;;;;;;4958599;28;20027;-77
2021/11/18 12:09:37;;;;;;;85.43;55.42;;;231.10;2252.80;;;;;;4958288;28;20031;-77